createdAt,value
2019-02-05T00:04:46.788Z,81.60
2019-02-05T00:10:16.644Z,81.70
2019-02-05T00:15:46.050Z,81.60
2019-02-05T00:21:15.487Z,81.70
2019-02-05T00:26:44.901Z,81.90
2019-02-05T00:32:14.413Z,81.80
2019-02-05T00:37:43.986Z,81.90
2019-02-05T00:43:13.398Z,81.90
2019-02-05T00:48:42.811Z,81.90
2019-02-05T00:54:14.196Z,82.80
2019-02-05T00:59:43.647Z,82.50
2019-02-05T01:05:13.398Z,82.40
2019-02-05T01:10:42.800Z,82.20
2019-02-05T01:16:12.273Z,82.10
2019-02-05T01:21:41.951Z,82.20
2019-02-05T01:27:11.474Z,82.20
2019-02-05T01:32:40.978Z,82.20
2019-02-05T01:38:10.551Z,82.20
2019-02-05T01:43:39.992Z,82.20
2019-02-05T01:49:09.685Z,82.20
2019-02-05T01:54:39.008Z,82.20
2019-02-05T02:00:15.778Z,82.20
2019-02-05T02:05:45.479Z,82.70
2019-02-05T02:11:14.885Z,82.30
2019-02-05T02:16:45.572Z,82.30
2019-02-05T02:22:15.282Z,82.40
2019-02-05T02:27:45.003Z,82.60
2019-02-05T02:33:14.503Z,82.50
2019-02-05T02:38:44.037Z,82.50
2019-02-05T02:44:13.435Z,82.50
2019-02-05T02:49:42.902Z,82.60
2019-02-05T02:55:12.379Z,82.70
2019-02-05T03:00:41.989Z,82.70
2019-02-05T03:06:11.715Z,82.70
2019-02-05T03:11:41.050Z,82.80
2019-02-05T03:17:10.523Z,82.80
2019-02-05T03:22:40.003Z,82.80
2019-02-05T03:28:09.421Z,82.70
2019-02-05T03:33:38.870Z,82.70
2019-02-05T03:39:08.782Z,82.70
2019-02-05T03:44:38.270Z,82.60
2019-02-05T03:50:07.837Z,82.60
2019-02-05T03:55:50.891Z,82.50
2019-02-05T04:01:50.680Z,82.70
2019-02-05T04:07:36.926Z,82.60
2019-02-05T04:13:29.332Z,82.50
2019-02-05T04:19:09.174Z,82.70
2019-02-05T04:25:19.416Z,82.50
2019-02-05T04:31:05.273Z,82.70
2019-02-05T04:37:08.877Z,82.60
2019-02-05T04:42:48.663Z,82.70
2019-02-05T04:48:36.983Z,82.60
2019-02-05T04:54:46.003Z,82.50
2019-02-05T05:00:41.183Z,82.70
2019-02-05T05:06:45.620Z,82.50
2019-02-05T05:12:15.118Z,82.50
2019-02-05T05:17:48.580Z,82.40
2019-02-05T05:23:18.547Z,82.50
2019-02-05T05:28:48.174Z,82.40
2019-02-05T05:34:17.611Z,82.30
2019-02-05T05:39:46.959Z,82.70
2019-02-05T05:45:16.959Z,82.30
2019-02-05T05:50:46.320Z,82.30
2019-02-05T05:56:15.913Z,82.20
2019-02-05T06:01:45.369Z,82.20
2019-02-05T06:07:15.288Z,82.30
2019-02-05T06:12:44.915Z,82.40
2019-02-05T06:18:21.892Z,82.40
2019-02-05T06:23:51.747Z,82.50
2019-02-05T06:29:23.104Z,82.40
2019-02-05T06:35:00.735Z,82.40
2019-02-05T06:40:30.328Z,82.30
2019-02-05T06:46:06.827Z,82.40
2019-02-05T06:51:37.418Z,82.40
2019-02-05T06:57:07.162Z,82.50
2019-02-05T07:02:43.169Z,82.60
2019-02-05T07:08:14.070Z,82.40
2019-02-05T07:13:53.660Z,82.50
2019-02-05T07:19:23.487Z,82.50
2019-02-05T07:24:53.789Z,82.30
2019-02-05T07:30:27.187Z,82.20
2019-02-05T07:35:56.950Z,82.10
2019-02-05T07:41:28.961Z,82.10
2019-02-05T07:46:58.969Z,82.00
2019-02-05T07:52:29.386Z,82.00
2019-02-05T07:57:59.460Z,81.70
2019-02-05T08:03:29.534Z,81.50
2019-02-05T08:08:59.319Z,81.40
2019-02-05T08:14:29.193Z,81.20
2019-02-05T08:19:58.758Z,81.50
2019-02-05T08:25:28.676Z,81.70
2019-02-05T08:30:58.337Z,81.70
2019-02-05T08:36:27.936Z,81.40
2019-02-05T08:41:57.680Z,81.10
2019-02-05T08:47:27.327Z,81.10
2019-02-05T08:52:57.281Z,81.10
2019-02-05T08:58:31.081Z,80.90
2019-02-05T09:03:58.572Z,80.80
2019-02-05T09:09:28.386Z,80.70
2019-02-05T09:14:58.063Z,81.40
2019-02-05T09:20:27.831Z,81.30
2019-02-05T09:25:57.591Z,80.80
2019-02-05T09:31:27.427Z,80.20
2019-02-05T09:36:57.201Z,79.90
2019-02-05T09:42:27.080Z,79.70
2019-02-05T09:47:56.933Z,79.40
2019-02-05T09:53:26.853Z,79.10
2019-02-05T09:58:56.593Z,78.90
2019-02-05T10:04:26.219Z,79.00
2019-02-05T10:09:55.944Z,78.70
2019-02-05T10:15:32.112Z,78.30
2019-02-05T10:21:02.080Z,77.80
2019-02-05T10:26:31.993Z,78.00
2019-02-05T10:32:01.783Z,78.40
2019-02-05T10:37:31.672Z,77.10
2019-02-05T10:43:02.070Z,77.50
2019-02-05T10:48:31.590Z,77.30
2019-02-05T10:54:01.403Z,76.80
2019-02-05T10:59:31.551Z,76.80
2019-02-05T11:05:01.608Z,76.60
2019-02-05T11:10:31.342Z,76.30
2019-02-05T11:16:00.853Z,75.70
2019-02-05T11:21:30.606Z,75.50
2019-02-05T11:27:00.597Z,75.30
2019-02-05T11:32:30.345Z,74.70
2019-02-05T11:38:00.127Z,74.60
2019-02-05T11:43:29.722Z,74.60
2019-02-05T11:48:59.360Z,74.00
2019-02-05T11:54:29.177Z,73.40
2019-02-05T11:59:58.935Z,73.60
2019-02-05T12:05:28.740Z,73.10
2019-02-05T12:10:58.975Z,72.70
2019-02-05T12:16:28.909Z,72.60
2019-02-05T12:21:58.638Z,72.10
2019-02-05T12:27:28.405Z,71.30
2019-02-05T12:33:01.917Z,71.10
2019-02-05T12:38:31.185Z,71.60
2019-02-05T12:44:00.812Z,70.70
2019-02-05T12:49:30.392Z,70.10
2019-02-05T12:55:12.741Z,70.30
2019-02-05T13:00:38.195Z,70.10
2019-02-05T13:06:07.819Z,69.70
2019-02-05T13:11:37.268Z,69.70
2019-02-05T13:17:07.005Z,70.20
2019-02-05T13:22:36.413Z,70.00
2019-02-05T13:28:08.675Z,70.20
2019-02-05T13:33:38.221Z,70.00
2019-02-05T13:39:11.569Z,69.70
2019-02-05T13:44:41.146Z,70.00
2019-02-05T13:50:15.815Z,68.90
2019-02-05T13:55:46.094Z,68.30
2019-02-05T14:01:19.930Z,68.30
2019-02-05T14:06:50.255Z,66.80
2019-02-05T14:12:18.184Z,64.60
2019-02-05T14:17:47.669Z,65.20
2019-02-05T14:23:17.023Z,63.60
2019-02-05T14:28:46.413Z,63.10
2019-02-05T14:34:15.837Z,65.30
2019-02-05T14:39:45.279Z,64.40
2019-02-05T14:45:16.568Z,65.40
2019-02-05T14:50:48.343Z,66.70
2019-02-05T14:56:17.857Z,67.30
2019-02-05T15:01:47.292Z,68.00
2019-02-05T15:07:16.742Z,68.60
2019-02-05T15:12:46.671Z,69.00
2019-02-05T15:18:17.242Z,69.30
2019-02-05T15:23:46.730Z,69.80
2019-02-05T15:29:16.408Z,69.90
2019-02-05T15:34:45.827Z,70.30
2019-02-05T15:40:17.944Z,70.50
2019-02-05T15:45:47.693Z,70.90
2019-02-05T15:51:17.382Z,71.30
2019-02-05T15:56:46.870Z,71.60
2019-02-05T16:02:16.397Z,72.00
2019-02-05T16:07:45.962Z,72.20
2019-02-05T16:13:17.907Z,72.40
2019-02-05T16:18:53.343Z,72.50
2019-02-05T16:24:25.702Z,72.80
2019-02-05T16:29:55.467Z,73.10
2019-02-05T16:35:28.240Z,73.20
2019-02-05T16:40:57.800Z,73.50
2019-02-05T16:46:27.523Z,73.60
2019-02-05T16:51:57.562Z,73.70
2019-02-05T16:57:27.915Z,74.60
2019-02-05T17:03:01.051Z,74.30
2019-02-05T17:08:30.732Z,74.50
2019-02-05T17:14:00.410Z,74.80
2019-02-05T17:19:31.919Z,74.90
2019-02-05T17:25:01.883Z,75.00
2019-02-05T17:30:37.936Z,75.20
2019-02-05T17:36:07.462Z,75.40
2019-02-05T17:41:36.915Z,75.70
2019-02-05T17:47:06.391Z,75.80
2019-02-05T17:52:37.391Z,76.10
2019-02-05T17:58:07.760Z,77.00
2019-02-05T18:03:39.151Z,76.50
2019-02-05T18:09:11.170Z,76.60
2019-02-05T18:14:42.172Z,76.90
2019-02-05T18:20:11.984Z,77.00
2019-02-05T18:25:41.546Z,77.10
2019-02-05T18:31:11.408Z,77.40
2019-02-05T18:36:40.923Z,77.60
2019-02-05T18:42:10.578Z,77.80
2019-02-05T18:47:41.590Z,77.80
2019-02-05T18:53:12.547Z,77.90
2019-02-05T18:58:43.102Z,77.90
2019-02-05T19:04:12.561Z,78.00
2019-02-05T19:09:42.052Z,78.30
2019-02-05T19:15:21.656Z,78.30
2019-02-05T19:20:52.407Z,78.30
2019-02-05T19:26:22.236Z,78.40
2019-02-05T19:31:52.269Z,78.40
2019-02-05T19:37:27.663Z,79.00
2019-02-05T19:42:53.800Z,78.40
2019-02-05T19:48:39.482Z,78.70
2019-02-05T19:54:09.277Z,78.70
2019-02-05T19:59:38.823Z,78.90
2019-02-05T20:05:11.241Z,79.20
2019-02-05T20:10:40.804Z,79.10
2019-02-05T20:16:10.255Z,79.30
2019-02-05T20:21:39.871Z,79.50
2019-02-05T20:27:09.297Z,80.10
2019-02-05T20:32:38.794Z,80.20
2019-02-05T20:38:08.368Z,80.20
2019-02-05T20:43:37.732Z,80.30
2019-02-05T20:49:07.175Z,80.20
2019-02-05T20:54:36.585Z,80.10
2019-02-05T21:00:16.375Z,80.30
2019-02-05T21:05:45.689Z,80.30
2019-02-05T21:11:15.286Z,80.60
2019-02-05T21:16:45.229Z,81.20
2019-02-05T21:22:14.785Z,81.20
2019-02-05T21:27:44.528Z,81.20
2019-02-05T21:33:14.121Z,81.30
2019-02-05T21:38:45.518Z,81.20
2019-02-05T21:44:15.236Z,81.20
2019-02-05T21:49:44.624Z,81.20
2019-02-05T21:55:22.585Z,81.00
2019-02-05T22:00:52.447Z,81.00
2019-02-05T22:06:22.602Z,81.10
2019-02-05T22:11:52.208Z,81.00
2019-02-05T22:17:22.144Z,81.00
2019-02-05T22:22:56.025Z,81.20
2019-02-05T22:28:25.351Z,81.10
2019-02-05T22:33:55.422Z,81.00
2019-02-05T22:39:26.694Z,81.10
2019-02-05T22:44:56.532Z,81.20
2019-02-05T22:50:29.854Z,81.20
2019-02-05T22:55:59.514Z,81.30
2019-02-05T23:01:39.043Z,81.40
2019-02-05T23:07:11.723Z,81.50
2019-02-05T23:12:42.815Z,81.50
2019-02-05T23:18:12.477Z,81.50
2019-02-05T23:23:42.161Z,81.50
2019-02-05T23:29:11.559Z,81.30
2019-02-05T23:34:40.903Z,81.40
2019-02-05T23:40:12.274Z,81.30
2019-02-05T23:45:41.762Z,81.10
2019-02-05T23:51:11.408Z,81.00
2019-02-05T23:56:40.908Z,81.10
